createdAt,value
2023-01-21T00:03:54.314Z,99898.75
2023-01-21T00:08:59.309Z,99896.59
2023-01-21T00:14:01.421Z,99892.75
2023-01-21T00:19:03.597Z,99890.28
2023-01-21T00:24:05.914Z,99892.84
2023-01-21T00:29:08.289Z,99899.94
2023-01-21T00:34:11.460Z,99892.41
2023-01-21T00:39:13.548Z,99901.66
2023-01-21T00:44:16.394Z,99900.53
2023-01-21T00:49:18.513Z,99906.25
2023-01-21T00:54:20.773Z,99903.09
2023-01-21T00:59:22.898Z,99893.59
2023-01-21T01:04:25.169Z,99907.97
2023-01-21T01:09:27.501Z,99895.13
2023-01-21T01:14:29.724Z,99888.13
2023-01-21T01:19:31.830Z,99896.69
2023-01-21T01:24:34.016Z,99921.25
2023-01-21T01:29:36.138Z,99909.41
2023-01-21T01:34:38.511Z,99910.94
2023-01-21T01:39:40.760Z,99928.16
2023-01-21T01:45:03.663Z,99914.75
2023-01-21T01:50:09.387Z,99907.97
2023-01-21T01:55:15.365Z,99902.75
2023-01-21T02:00:18.331Z,99895.25
2023-01-21T02:05:20.871Z,99902.06
2023-01-21T02:10:23.082Z,99882.16
2023-01-21T02:15:33.113Z,99889.97
2023-01-21T02:20:35.279Z,99893.16
2023-01-21T02:26:06.104Z,99897.28
2023-01-21T02:31:28.529Z,99893.09
2023-01-21T02:36:43.406Z,99876.59
2023-01-21T02:42:10.815Z,99898.44
2023-01-21T02:47:36.232Z,99892.44
2023-01-21T02:52:38.312Z,99903.75
2023-01-21T02:57:43.287Z,99896.66
2023-01-21T03:02:56.493Z,99902.47
2023-01-21T03:08:17.488Z,99899.78
2023-01-21T03:13:55.996Z,99908.72
2023-01-21T03:19:05.338Z,99892.56
2023-01-21T03:24:08.892Z,99900.72
2023-01-21T03:29:19.599Z,99906.97
2023-01-21T03:34:25.589Z,99925.00
2023-01-21T03:39:33.425Z,99899.59
2023-01-21T03:44:36.020Z,99918.84
2023-01-21T03:49:53.394Z,99925.91
2023-01-21T03:54:55.667Z,99934.88
2023-01-21T03:59:57.801Z,99948.63
2023-01-21T04:04:59.938Z,99938.59
2023-01-21T04:10:02.223Z,99944.84
2023-01-21T04:15:05.650Z,99939.63
2023-01-21T04:20:08.718Z,99973.03
2023-01-21T04:25:11.022Z,99961.47
2023-01-21T04:30:13.417Z,99956.72
2023-01-21T04:35:15.521Z,99986.56
2023-01-21T04:40:18.163Z,99963.09
2023-01-21T04:45:20.525Z,99983.47
2023-01-21T04:50:22.689Z,99999.03
2023-01-21T04:55:26.277Z,100008.84
2023-01-21T05:00:28.809Z,99988.63
2023-01-21T05:05:30.909Z,100009.16
2023-01-21T05:10:33.276Z,100028.94
2023-01-21T05:15:35.763Z,100031.56
2023-01-21T05:20:37.930Z,100033.56
2023-01-21T05:25:40.107Z,100041.28
2023-01-21T05:30:44.405Z,100037.06
2023-01-21T05:35:46.774Z,100051.66
2023-01-21T05:40:48.917Z,100036.31
2023-01-21T05:45:51.390Z,100035.44
2023-01-21T05:50:53.558Z,100021.22
2023-01-21T05:55:57.264Z,100055.97
2023-01-21T06:00:59.459Z,100075.09
2023-01-21T06:06:01.684Z,100083.22
2023-01-21T06:11:03.878Z,100084.94
2023-01-21T06:16:06.222Z,100093.63
2023-01-21T06:21:08.356Z,100079.50
2023-01-21T06:26:10.439Z,100095.22
2023-01-21T06:31:12.672Z,100103.56
2023-01-21T06:36:14.896Z,100094.47
2023-01-21T06:41:17.034Z,100120.06
2023-01-21T06:46:19.190Z,100121.16
2023-01-21T06:51:21.402Z,100125.81
2023-01-21T06:56:23.593Z,100134.47
2023-01-21T07:01:25.666Z,100135.87
2023-01-21T07:06:27.800Z,100129.81
2023-01-21T07:11:30.511Z,100133.13
2023-01-21T07:16:32.628Z,100148.28
2023-01-21T07:21:34.767Z,100156.22
2023-01-21T07:26:38.178Z,100173.69
2023-01-21T07:31:40.636Z,100181.94
2023-01-21T07:36:42.787Z,100193.53
2023-01-21T07:41:44.900Z,100195.44
2023-01-21T07:46:47.216Z,100214.72
2023-01-21T07:51:49.987Z,100213.81
2023-01-21T07:56:52.139Z,100215.59
2023-01-21T08:01:54.287Z,100211.47
2023-01-21T08:06:57.254Z,100222.75
2023-01-21T08:11:59.453Z,100235.62
2023-01-21T08:17:01.799Z,100235.75
2023-01-21T08:22:04.106Z,100227.25
2023-01-21T08:27:06.286Z,100240.03
2023-01-21T08:32:08.884Z,100225.72
2023-01-21T08:37:11.064Z,100222.06
2023-01-21T08:42:13.175Z,100233.56
2023-01-21T08:47:15.244Z,100246.09
2023-01-21T08:52:17.436Z,100249.03
2023-01-21T08:57:19.777Z,100249.97
2023-01-21T09:02:21.949Z,100248.69
2023-01-21T09:07:24.191Z,100260.97
2023-01-21T09:12:26.299Z,100234.16
2023-01-21T09:17:28.619Z,100270.06
2023-01-21T09:22:30.805Z,100277.91
2023-01-21T09:27:32.977Z,100260.53
2023-01-21T09:32:35.156Z,100276.72
2023-01-21T09:37:38.527Z,100270.22
2023-01-21T09:42:42.733Z,100272.44
2023-01-21T09:47:47.490Z,100264.78
2023-01-21T09:53:00.002Z,100276.12
2023-01-21T09:58:30.365Z,100256.59
2023-01-21T10:03:50.666Z,100279.41
2023-01-21T10:09:11.686Z,100281.81
2023-01-21T10:14:33.952Z,100259.66
2023-01-21T10:19:42.453Z,100265.44
2023-01-21T10:31:35.302Z,100284.50
2023-01-21T10:43:19.195Z,100301.41
2023-01-21T10:48:29.107Z,100296.22
2023-01-21T10:53:50.062Z,100297.97
2023-01-21T10:59:05.423Z,100302.59
2023-01-21T11:04:15.535Z,100295.47
2023-01-21T11:09:18.108Z,100289.97
2023-01-21T11:14:21.301Z,100282.44
2023-01-21T11:19:30.595Z,100292.72
2023-01-21T11:24:46.765Z,100286.00
2023-01-21T11:29:50.335Z,100285.88
2023-01-21T11:35:10.349Z,100279.81
2023-01-21T11:40:25.659Z,100277.66
2023-01-21T11:45:32.142Z,100273.16
2023-01-21T11:50:37.873Z,100272.31
2023-01-21T11:55:46.730Z,100271.75
2023-01-21T12:00:51.393Z,100268.00
2023-01-21T12:05:54.020Z,100264.44
2023-01-21T12:11:02.128Z,100273.97
2023-01-21T12:16:35.299Z,100279.19
2023-01-21T12:22:02.292Z,100278.97
2023-01-21T12:27:15.600Z,100284.84
2023-01-21T12:32:24.802Z,100280.16
2023-01-21T12:37:58.987Z,100298.69
2023-01-21T12:43:10.257Z,100293.53
2023-01-21T12:48:21.153Z,100292.09
2023-01-21T12:53:48.719Z,100307.94
2023-01-21T12:58:59.910Z,100311.81
2023-01-21T13:04:29.973Z,100305.63
2023-01-21T13:09:51.008Z,100317.12
2023-01-21T13:15:21.766Z,100320.78
2023-01-21T13:20:24.652Z,100323.62
2023-01-21T13:25:36.292Z,100336.13
2023-01-21T13:31:03.847Z,100332.56
2023-01-21T13:42:09.661Z,100340.84
2023-01-21T13:47:39.164Z,100337.53
2023-01-21T13:52:44.343Z,100345.87
2023-01-21T13:57:49.295Z,100353.28
2023-01-21T14:03:00.498Z,100355.47
2023-01-21T14:08:22.541Z,100361.66
2023-01-21T14:13:56.033Z,100372.19
2023-01-21T14:19:24.251Z,100385.09
2023-01-21T14:24:50.556Z,100386.72
2023-01-21T14:30:07.382Z,100390.94
2023-01-21T14:35:24.611Z,100383.16
2023-01-21T14:40:32.899Z,100394.28
2023-01-21T14:45:54.791Z,100398.31
2023-01-21T14:51:22.634Z,100401.31
2023-01-21T14:56:27.843Z,100413.25
2023-01-21T15:01:35.281Z,100418.06
2023-01-21T15:06:40.054Z,100426.31
2023-01-21T15:11:44.358Z,100434.81
2023-01-21T15:16:47.593Z,100430.06
2023-01-21T15:22:21.917Z,100433.94
2023-01-21T15:27:28.482Z,100430.28
2023-01-21T15:32:51.047Z,100452.53
2023-01-21T15:38:09.070Z,100438.41
2023-01-21T15:43:29.916Z,100448.31
2023-01-21T15:48:48.457Z,100450.25
2023-01-21T15:54:20.469Z,100440.97
2023-01-21T15:59:53.900Z,100454.56
2023-01-21T16:05:22.812Z,100462.78
2023-01-21T16:10:50.375Z,100466.47
2023-01-21T16:16:17.695Z,100457.97
2023-01-21T16:21:28.780Z,100487.34
2023-01-21T16:26:33.070Z,100494.31
2023-01-21T16:31:59.914Z,100500.09
2023-01-21T16:37:05.749Z,100505.75
2023-01-21T16:42:23.917Z,100512.63
2023-01-21T16:47:32.781Z,100503.09
2023-01-21T16:52:35.585Z,100509.31
2023-01-21T16:57:37.850Z,100508.94
2023-01-21T17:02:40.031Z,100510.22
2023-01-21T17:07:45.116Z,100512.34
2023-01-21T17:12:58.528Z,100519.72
2023-01-21T17:18:01.201Z,100514.19
2023-01-21T17:23:23.215Z,100511.94
2023-01-21T17:28:30.965Z,100524.19
2023-01-21T17:33:33.805Z,100529.78
2023-01-21T17:38:41.539Z,100524.50
2023-01-21T17:43:50.112Z,100515.63
2023-01-21T17:48:57.579Z,100528.56
2023-01-21T17:54:04.069Z,100537.63
2023-01-21T17:59:34.877Z,100532.09
2023-01-21T18:04:37.030Z,100537.44
2023-01-21T18:09:41.657Z,100531.50
2023-01-21T18:14:44.183Z,100521.75
2023-01-21T18:19:46.752Z,100564.34
2023-01-21T18:24:48.887Z,100577.84
2023-01-21T18:29:51.814Z,100579.13
2023-01-21T18:34:54.083Z,100588.94
2023-01-21T18:39:56.256Z,100571.22
2023-01-21T18:44:58.420Z,100581.84
2023-01-21T18:50:03.449Z,100567.06
2023-01-21T18:55:07.511Z,100577.78
2023-01-21T19:00:19.428Z,100575.75
2023-01-21T19:05:24.397Z,100580.50
2023-01-21T19:10:27.062Z,100584.41
2023-01-21T19:15:30.367Z,100580.34
2023-01-21T19:20:32.594Z,100603.31
2023-01-21T19:25:38.968Z,100607.53
2023-01-21T19:30:49.686Z,100620.59
2023-01-21T19:36:06.777Z,100628.75
2023-01-21T19:41:08.844Z,100639.00
2023-01-21T19:46:13.524Z,100629.44
2023-01-21T19:51:15.962Z,100639.63
2023-01-21T19:56:24.217Z,100633.81
2023-01-21T20:01:32.783Z,100617.25
2023-01-21T20:06:40.364Z,100629.72
2023-01-21T20:11:42.472Z,100630.53
2023-01-21T20:16:51.649Z,100631.06
2023-01-21T20:22:01.650Z,100629.84
2023-01-21T20:27:07.776Z,100633.00
2023-01-21T20:32:11.733Z,100625.81
2023-01-21T20:37:15.125Z,100638.94
2023-01-21T20:42:17.208Z,100638.84
2023-01-21T20:47:32.559Z,100652.94
2023-01-21T20:52:40.884Z,100652.09
2023-01-21T20:57:43.029Z,100658.72
2023-01-21T21:02:49.064Z,100639.41
2023-01-21T21:07:51.576Z,100654.59
2023-01-21T21:12:58.030Z,100636.00
2023-01-21T21:18:05.163Z,100652.88
2023-01-21T21:23:07.876Z,100662.62
2023-01-21T21:28:13.009Z,100659.38
2023-01-21T21:33:19.320Z,100639.38
2023-01-21T21:38:26.077Z,100672.50
2023-01-21T21:43:39.018Z,100651.59
2023-01-21T21:48:42.561Z,100652.94
2023-01-21T21:53:46.142Z,100664.94
2023-01-21T21:58:49.157Z,100671.81
2023-01-21T22:03:51.860Z,100675.19
2023-01-21T22:08:55.660Z,100669.16
2023-01-21T22:13:58.781Z,100671.53
2023-01-21T22:19:01.170Z,100659.38
2023-01-21T22:24:08.772Z,100661.28
2023-01-21T22:29:11.888Z,100656.47
2023-01-21T22:34:14.118Z,100649.09
2023-01-21T22:39:16.892Z,100645.34
2023-01-21T22:44:19.051Z,100663.28
2023-01-21T22:49:21.231Z,100653.75
2023-01-21T22:54:23.391Z,100652.78
2023-01-21T22:59:25.544Z,100637.13
2023-01-21T23:04:27.809Z,100639.31
2023-01-21T23:09:30.074Z,100634.25
2023-01-21T23:14:32.230Z,100642.19
2023-01-21T23:19:34.355Z,100634.31
2023-01-21T23:24:36.517Z,100658.81
2023-01-21T23:29:38.603Z,100658.81
2023-01-21T23:34:40.780Z,100665.69
2023-01-21T23:39:43.134Z,100658.81
2023-01-21T23:44:45.754Z,100662.50
2023-01-21T23:49:47.816Z,100675.88
2023-01-21T23:54:49.963Z,100677.75
2023-01-21T23:59:52.314Z,100668.78
